createdAt,value
2018-06-14T00:01:07.951Z,12.71
2018-06-14T00:03:36.824Z,12.51
2018-06-14T00:06:06.213Z,12.45
2018-06-14T00:08:35.075Z,12.44
2018-06-14T00:11:03.913Z,12.46
2018-06-14T00:13:32.766Z,12.45
2018-06-14T00:16:01.624Z,12.45
2018-06-14T00:18:30.463Z,12.48
2018-06-14T00:20:59.319Z,12.47
2018-06-14T00:23:28.135Z,12.48
2018-06-14T00:25:56.998Z,12.50
2018-06-14T00:28:25.854Z,12.46
2018-06-14T00:30:54.726Z,12.45
2018-06-14T00:33:23.604Z,12.43
2018-06-14T00:35:52.476Z,12.51
2018-06-14T00:38:21.306Z,12.50
2018-06-14T00:40:50.168Z,12.45
2018-06-14T00:43:19.015Z,12.39
2018-06-14T00:45:47.877Z,12.36
2018-06-14T00:48:16.720Z,12.36
2018-06-14T00:50:45.588Z,12.30
2018-06-14T00:53:14.549Z,12.30
2018-06-14T00:55:43.404Z,12.34
2018-06-14T00:58:12.244Z,12.63
2018-06-14T01:00:41.073Z,12.43
2018-06-14T01:03:09.939Z,12.37
2018-06-14T01:05:38.806Z,12.38
2018-06-14T01:08:07.671Z,12.41
2018-06-14T01:10:36.531Z,12.42
2018-06-14T01:13:05.617Z,12.38
2018-06-14T01:15:34.446Z,12.36
2018-06-14T01:18:03.305Z,12.37
2018-06-14T01:20:32.171Z,12.69
2018-06-14T01:23:01.012Z,12.54
2018-06-14T01:25:29.858Z,12.44
2018-06-14T01:27:58.743Z,12.38
2018-06-14T01:30:27.625Z,12.33
2018-06-14T01:32:56.513Z,12.26
2018-06-14T01:35:25.759Z,12.24
2018-06-14T01:38:19.227Z,12.25
2018-06-14T01:40:48.118Z,12.27
2018-06-14T01:43:17.943Z,12.24
2018-06-14T01:45:46.800Z,12.24
2018-06-14T01:48:16.098Z,12.22
2018-06-14T01:50:45.307Z,12.21
2018-06-14T01:53:14.288Z,12.20
2018-06-14T01:55:43.159Z,12.23
2018-06-14T01:58:12.047Z,12.24
2018-06-14T02:00:40.941Z,12.23
2018-06-14T02:03:09.845Z,12.23
2018-06-14T02:05:38.715Z,12.24
2018-06-14T02:08:07.544Z,12.28
2018-06-14T02:10:36.410Z,12.29
2018-06-14T02:13:05.239Z,12.29
2018-06-14T02:15:34.154Z,12.30
2018-06-14T02:18:02.981Z,12.28
2018-06-14T02:20:31.860Z,12.23
2018-06-14T02:23:00.741Z,12.19
2018-06-14T02:25:29.600Z,12.19
2018-06-14T02:27:58.441Z,12.19
2018-06-14T02:30:27.538Z,12.15
2018-06-14T02:32:56.447Z,12.12
2018-06-14T02:35:25.301Z,12.11
2018-06-14T02:37:54.186Z,12.05
2018-06-14T02:40:23.059Z,12.08
2018-06-14T02:42:51.960Z,12.10
2018-06-14T02:45:20.798Z,12.40
2018-06-14T02:47:49.653Z,12.22
2018-06-14T02:50:18.533Z,12.14
2018-06-14T02:52:47.360Z,12.16
2018-06-14T02:55:16.241Z,12.17
2018-06-14T02:57:45.105Z,12.15
2018-06-14T03:00:14.286Z,12.15
2018-06-14T03:02:43.163Z,12.11
2018-06-14T03:05:12.015Z,12.10
2018-06-14T03:07:40.878Z,12.12
2018-06-14T03:10:09.747Z,12.12
2018-06-14T03:12:38.591Z,12.13
2018-06-14T03:15:07.461Z,12.15
2018-06-14T03:17:36.313Z,12.18
2018-06-14T03:20:05.257Z,12.24
2018-06-14T03:22:34.141Z,12.29
2018-06-14T03:25:03.029Z,12.29
2018-06-14T03:27:31.901Z,12.33
2018-06-14T03:30:00.810Z,12.33
2018-06-14T03:32:29.674Z,12.40
2018-06-14T03:34:58.560Z,12.41
2018-06-14T03:37:27.463Z,12.44
2018-06-14T03:39:56.354Z,12.45
2018-06-14T03:42:25.220Z,12.51
2018-06-14T03:44:54.123Z,12.56
2018-06-14T03:47:23.019Z,12.62
2018-06-14T03:49:51.900Z,12.67
2018-06-14T03:52:20.777Z,12.70
2018-06-14T03:54:49.602Z,13.10
2018-06-14T03:57:18.490Z,13.00
2018-06-14T03:59:47.360Z,13.03
2018-06-14T04:02:16.246Z,13.09
2018-06-14T04:04:45.159Z,13.15
2018-06-14T04:07:13.990Z,13.51
2018-06-14T04:09:42.828Z,13.33
2018-06-14T04:12:11.706Z,13.30
2018-06-14T04:14:40.567Z,13.36
2018-06-14T04:17:09.436Z,13.37
2018-06-14T04:19:38.300Z,13.44
2018-06-14T04:22:07.206Z,13.51
2018-06-14T04:24:36.067Z,13.59
2018-06-14T04:27:05.087Z,13.63
2018-06-14T04:29:33.968Z,13.68
2018-06-14T04:32:02.818Z,13.75
2018-06-14T04:34:31.687Z,13.76
2018-06-14T04:37:00.576Z,13.85
2018-06-14T04:39:29.420Z,13.90
2018-06-14T04:41:58.282Z,13.94
2018-06-14T04:44:27.166Z,14.03
2018-06-14T04:46:56.044Z,14.10
2018-06-14T04:49:24.889Z,14.14
2018-06-14T04:51:53.760Z,14.26
2018-06-14T04:54:22.624Z,14.33
2018-06-14T04:56:51.556Z,14.37
2018-06-14T04:59:20.480Z,14.39
2018-06-14T05:01:49.347Z,14.52
2018-06-14T05:04:18.196Z,14.57
2018-06-14T05:06:47.096Z,14.62
2018-06-14T05:09:15.983Z,14.66
2018-06-14T05:11:44.875Z,14.69
2018-06-14T05:14:13.728Z,14.67
2018-06-14T05:16:42.585Z,14.70
2018-06-14T05:19:11.456Z,14.81
2018-06-14T05:21:40.348Z,14.82
2018-06-14T05:24:09.202Z,15.08
2018-06-14T05:26:38.061Z,14.99
2018-06-14T05:29:06.909Z,14.97
2018-06-14T05:31:35.849Z,15.41
2018-06-14T05:34:04.643Z,15.19
2018-06-14T05:36:33.532Z,15.37
2018-06-14T05:39:02.576Z,15.44
2018-06-14T05:41:31.438Z,15.57
2018-06-14T05:44:00.285Z,15.70
2018-06-14T05:46:29.147Z,15.85
2018-06-14T05:48:58.004Z,15.90
2018-06-14T05:51:26.845Z,16.13
2018-06-14T05:53:55.737Z,16.08
2018-06-14T05:56:24.598Z,16.09
2018-06-14T05:58:53.458Z,16.23
2018-06-14T06:01:22.321Z,16.12
2018-06-14T06:03:51.170Z,16.48
2018-06-14T06:06:20.057Z,16.49
2018-06-14T06:08:48.917Z,16.56
2018-06-14T06:11:17.778Z,16.52
2018-06-14T06:13:47.030Z,16.83
2018-06-14T06:16:15.930Z,16.80
2018-06-14T06:18:44.820Z,16.87
2018-06-14T06:21:13.712Z,16.94
2018-06-14T06:23:42.590Z,17.08
2018-06-14T06:26:11.510Z,17.13
2018-06-14T06:28:40.298Z,17.43
2018-06-14T06:31:09.172Z,17.81
2018-06-14T06:33:38.041Z,19.22
2018-06-14T06:36:06.956Z,20.89
2018-06-14T06:38:35.872Z,22.45
2018-06-14T06:41:04.681Z,23.41
2018-06-14T06:43:33.544Z,24.23
2018-06-14T06:46:02.402Z,24.65
2018-06-14T06:48:31.267Z,25.19
2018-06-14T06:51:00.365Z,26.36
2018-06-14T06:53:29.179Z,26.43
2018-06-14T06:55:58.064Z,26.76
2018-06-14T06:58:26.929Z,26.71
2018-06-14T07:00:55.805Z,27.14
2018-06-14T07:03:24.638Z,28.54
2018-06-14T07:05:53.606Z,28.30
2018-06-14T07:08:22.437Z,26.76
2018-06-14T07:10:51.265Z,27.43
2018-06-14T07:13:20.100Z,27.70
2018-06-14T07:15:48.976Z,27.99
2018-06-14T07:18:17.972Z,28.65
2018-06-14T07:20:46.992Z,28.54
2018-06-14T07:23:15.918Z,28.82
2018-06-14T07:25:45.059Z,30.21
2018-06-14T07:28:13.901Z,29.91
2018-06-14T07:30:42.727Z,30.10
2018-06-14T07:33:11.704Z,28.06
2018-06-14T07:35:41.021Z,28.00
2018-06-14T07:38:09.706Z,28.68
2018-06-14T07:40:38.579Z,29.42
2018-06-14T07:43:07.495Z,28.42
2018-06-14T07:45:36.286Z,29.17
2018-06-14T07:48:05.228Z,29.72
2018-06-14T07:50:34.152Z,28.60
2018-06-14T07:53:03.001Z,29.10
2018-06-14T07:55:31.826Z,28.29
2018-06-14T07:58:00.886Z,29.00
2018-06-14T08:00:29.882Z,27.63
2018-06-14T08:02:58.767Z,27.83
2018-06-14T08:05:27.647Z,28.20
2018-06-14T08:07:56.497Z,28.46
2018-06-14T08:10:25.386Z,28.67
2018-06-14T08:12:54.240Z,29.73
2018-06-14T08:15:23.122Z,28.83
2018-06-14T08:17:52.006Z,30.88
2018-06-14T08:20:20.876Z,31.44
2018-06-14T08:22:50.309Z,31.05
2018-06-14T08:25:19.225Z,31.53
2018-06-14T08:27:48.587Z,29.95
2018-06-14T08:30:17.552Z,28.34
2018-06-14T08:32:46.414Z,29.22
2018-06-14T08:35:15.246Z,30.39
2018-06-14T08:37:44.124Z,29.79
2018-06-14T08:40:12.936Z,30.06
2018-06-14T08:42:41.763Z,29.89
2018-06-14T08:45:10.662Z,29.56
2018-06-14T08:47:39.566Z,30.26
2018-06-14T08:50:08.334Z,31.58
2018-06-14T08:52:37.304Z,31.25
2018-06-14T08:55:06.142Z,29.94
2018-06-14T08:57:35.014Z,29.97
2018-06-14T09:00:04.309Z,29.58
2018-06-14T09:02:33.154Z,29.89
2018-06-14T09:05:02.077Z,30.41
2018-06-14T09:07:30.901Z,27.17
2018-06-14T09:09:59.753Z,26.97
2018-06-14T09:12:28.649Z,26.16
2018-06-14T09:14:57.644Z,25.85
2018-06-14T09:17:26.447Z,25.93
2018-06-14T09:19:55.297Z,26.42
2018-06-14T09:22:24.223Z,26.18
2018-06-14T09:24:53.129Z,24.77
2018-06-14T09:27:21.998Z,23.40
2018-06-14T09:29:50.905Z,24.25
2018-06-14T09:32:20.125Z,23.97
2018-06-14T09:34:54.925Z,23.99
2018-06-14T09:37:24.053Z,23.71
2018-06-14T09:39:53.145Z,23.66
2018-06-14T09:42:25.015Z,22.83
2018-06-14T09:44:56.647Z,22.98
2018-06-14T09:47:26.071Z,23.73
2018-06-14T09:49:55.539Z,23.84
2018-06-14T09:52:25.136Z,24.25
2018-06-14T09:54:54.889Z,23.83
2018-06-14T09:57:24.170Z,23.93
2018-06-14T09:59:53.649Z,24.03
2018-06-14T10:02:22.722Z,23.95
2018-06-14T10:04:52.830Z,24.04
2018-06-14T10:07:21.689Z,24.16
2018-06-14T10:09:50.545Z,24.34
2018-06-14T10:12:19.462Z,25.06
2018-06-14T10:14:48.365Z,24.75
2018-06-14T10:17:17.268Z,24.84
2018-06-14T10:19:46.143Z,24.25
2018-06-14T10:22:15.023Z,24.04
2018-06-14T10:24:43.887Z,24.15
2018-06-14T10:27:12.741Z,24.14
2018-06-14T10:29:41.722Z,24.04
2018-06-14T10:32:10.597Z,23.59
2018-06-14T10:34:39.500Z,23.63
2018-06-14T10:37:08.339Z,23.72
2018-06-14T10:39:38.371Z,23.38
2018-06-14T10:42:07.623Z,22.68
2018-06-14T10:44:36.591Z,22.90
2018-06-14T10:47:05.548Z,22.82
2018-06-14T10:49:34.478Z,22.81
2018-06-14T10:52:03.384Z,23.25
2018-06-14T10:54:32.243Z,23.00
2018-06-14T10:57:01.114Z,22.90
2018-06-14T10:59:29.989Z,23.11
2018-06-14T11:01:58.821Z,23.49
2018-06-14T11:04:27.788Z,22.92
2018-06-14T11:06:56.632Z,22.08
2018-06-14T11:09:25.546Z,22.63
2018-06-14T11:11:54.503Z,22.59
2018-06-14T11:14:23.400Z,22.66
2018-06-14T11:16:52.239Z,22.64
2018-06-14T11:19:21.077Z,22.62
2018-06-14T11:21:49.920Z,22.52
2018-06-14T11:24:18.821Z,22.39
2018-06-14T11:26:47.699Z,22.50
2018-06-14T11:29:16.600Z,22.55
2018-06-14T11:31:45.594Z,22.51
2018-06-14T11:34:14.481Z,22.70
2018-06-14T11:36:43.334Z,22.91
2018-06-14T11:39:12.224Z,23.16
2018-06-14T11:41:41.060Z,22.71
2018-06-14T11:44:10.411Z,22.13
2018-06-14T11:46:40.710Z,22.53
2018-06-14T11:49:09.596Z,22.37
2018-06-14T11:51:38.667Z,22.17
2018-06-14T11:54:07.652Z,21.80
2018-06-14T11:56:36.453Z,21.98
2018-06-14T11:59:05.353Z,22.17
2018-06-14T12:01:34.226Z,21.68
2018-06-14T12:04:03.159Z,21.63
2018-06-14T12:06:32.071Z,21.44
2018-06-14T12:09:00.977Z,21.33
2018-06-14T12:11:29.767Z,20.99
2018-06-14T12:13:58.690Z,21.13
2018-06-14T12:16:27.603Z,21.09
2018-06-14T12:18:56.465Z,20.84
2018-06-14T12:21:25.467Z,20.71
2018-06-14T12:23:54.498Z,20.60
2018-06-14T12:26:24.733Z,20.61
2018-06-14T12:28:53.927Z,20.51
2018-06-14T12:31:23.553Z,20.46
2018-06-14T12:33:55.246Z,20.07
2018-06-14T12:36:24.648Z,19.90
2018-06-14T12:38:54.412Z,19.89
2018-06-14T12:41:23.575Z,19.75
2018-06-14T12:43:55.199Z,19.96
2018-06-14T12:46:25.914Z,20.09
2018-06-14T12:48:55.988Z,20.15
2018-06-14T12:51:24.740Z,19.90
2018-06-14T12:53:54.521Z,20.00
2018-06-14T12:56:27.170Z,20.33
2018-06-14T12:58:56.040Z,19.93
2018-06-14T13:01:24.912Z,19.90
2018-06-14T13:03:53.924Z,19.87
2018-06-14T13:06:22.798Z,19.82
2018-06-14T13:08:51.856Z,19.90
2018-06-14T13:11:20.680Z,19.52
2018-06-14T13:13:49.560Z,19.63
2018-06-14T13:16:18.447Z,19.65
2018-06-14T13:18:47.304Z,19.53
2018-06-14T13:21:16.307Z,19.52
2018-06-14T13:23:45.141Z,19.25
2018-06-14T13:26:14.262Z,19.18
2018-06-14T13:28:43.141Z,18.96
2018-06-14T13:31:11.992Z,19.00
2018-06-14T13:33:40.862Z,18.75
2018-06-14T13:36:09.884Z,18.98
2018-06-14T13:38:39.548Z,18.76
2018-06-14T13:41:08.387Z,19.02
2018-06-14T13:43:37.640Z,18.79
2018-06-14T13:46:06.761Z,18.73
2018-06-14T13:48:35.592Z,19.09
2018-06-14T13:51:04.464Z,19.01
2018-06-14T13:53:33.346Z,18.98
2018-06-14T13:56:02.243Z,19.44
2018-06-14T13:58:31.166Z,19.67
2018-06-14T14:01:00.230Z,19.30
2018-06-14T14:03:28.949Z,19.18
2018-06-14T14:05:57.853Z,19.21
2018-06-14T14:08:26.709Z,19.39
2018-06-14T14:10:55.568Z,19.49
2018-06-14T14:13:24.415Z,19.43
2018-06-14T14:15:53.279Z,19.71
2018-06-14T14:18:22.118Z,19.63
2018-06-14T14:20:51.031Z,19.57
2018-06-14T14:23:19.827Z,19.86
2018-06-14T14:25:48.976Z,19.84
2018-06-14T14:28:17.834Z,19.82
2018-06-14T14:30:46.665Z,19.34
2018-06-14T14:33:15.541Z,19.56
2018-06-14T14:35:44.403Z,19.60
2018-06-14T14:38:13.241Z,19.68
2018-06-14T14:40:42.075Z,19.74
2018-06-14T14:43:10.935Z,19.17
2018-06-14T14:45:39.788Z,19.75
2018-06-14T14:48:08.713Z,19.51
2018-06-14T14:50:37.583Z,19.54
2018-06-14T14:53:06.539Z,19.67
2018-06-14T14:55:35.345Z,19.69
2018-06-14T14:58:04.238Z,19.36
2018-06-14T15:00:33.102Z,19.69
2018-06-14T15:03:01.996Z,19.61
2018-06-14T15:05:30.907Z,19.79
2018-06-14T15:07:59.784Z,19.84
2018-06-14T15:10:28.640Z,19.70
2018-06-14T15:12:57.506Z,19.44
2018-06-14T15:15:26.378Z,19.50
2018-06-14T15:17:55.289Z,19.19
2018-06-14T15:20:24.271Z,19.27
2018-06-14T15:22:53.132Z,19.32
2018-06-14T15:25:21.971Z,19.29
2018-06-14T15:27:51.112Z,19.68
2018-06-14T15:30:19.957Z,19.42
2018-06-14T15:32:48.817Z,19.44
2018-06-14T15:35:17.707Z,19.36
2018-06-14T15:37:46.703Z,19.29
2018-06-14T15:40:15.597Z,19.45
2018-06-14T15:42:44.458Z,19.47
2018-06-14T15:45:13.348Z,19.24
2018-06-14T15:47:42.184Z,19.33
2018-06-14T15:50:11.060Z,19.68
2018-06-14T15:52:39.946Z,19.50
2018-06-14T15:56:05.022Z,19.37
2018-06-14T15:58:33.893Z,19.47
2018-06-14T16:01:02.885Z,19.41
2018-06-14T16:03:31.730Z,18.92
2018-06-14T16:06:00.564Z,18.92
2018-06-14T16:08:29.457Z,18.74
2018-06-14T16:10:58.371Z,18.93
2018-06-14T16:13:27.184Z,18.87
2018-06-14T16:15:56.059Z,18.87
2018-06-14T16:18:24.886Z,18.78
2018-06-14T16:20:53.751Z,18.61
2018-06-14T16:23:22.672Z,18.60
2018-06-14T16:25:51.544Z,18.31
2018-06-14T16:28:20.400Z,18.38
2018-06-14T16:30:49.265Z,18.37
2018-06-14T16:33:18.104Z,18.36
2018-06-14T16:35:46.986Z,18.33
2018-06-14T16:38:15.864Z,18.22
2018-06-14T16:40:44.744Z,18.34
2018-06-14T16:43:13.590Z,18.81
2018-06-14T16:45:42.489Z,18.55
2018-06-14T16:48:11.306Z,18.48
2018-06-14T16:50:40.140Z,18.53
2018-06-14T16:53:09.032Z,18.55
2018-06-14T16:55:37.928Z,18.60
2018-06-14T16:58:06.821Z,18.55
2018-06-14T17:00:35.686Z,18.31
2018-06-14T17:03:04.796Z,18.32
2018-06-14T17:05:33.667Z,18.29
2018-06-14T17:08:02.564Z,18.18
2018-06-14T17:10:31.446Z,18.22
2018-06-14T17:13:00.259Z,18.10
2018-06-14T17:15:29.150Z,18.10
2018-06-14T17:17:58.051Z,17.92
2018-06-14T17:20:26.932Z,17.92
2018-06-14T17:22:55.814Z,17.87
2018-06-14T17:25:24.706Z,17.82
2018-06-14T17:27:53.595Z,17.71
2018-06-14T17:30:22.510Z,17.79
2018-06-14T17:32:51.377Z,17.84
2018-06-14T17:35:20.273Z,17.88
2018-06-14T17:37:49.162Z,17.89
2018-06-14T17:40:18.056Z,17.85
2018-06-14T17:42:46.955Z,17.79
2018-06-14T17:45:15.828Z,17.76
2018-06-14T17:47:44.740Z,17.72
2018-06-14T17:50:13.645Z,17.75
2018-06-14T17:52:42.505Z,17.69
2018-06-14T17:55:11.419Z,17.73
2018-06-14T17:57:40.472Z,17.52
2018-06-14T18:00:09.390Z,17.59
2018-06-14T18:02:38.260Z,17.58
2018-06-14T18:05:07.862Z,17.44
2018-06-14T18:07:36.753Z,17.43
2018-06-14T18:10:05.058Z,17.47
2018-06-14T18:12:33.940Z,17.49
2018-06-14T18:15:04.218Z,17.47
2018-06-14T18:17:33.023Z,17.38
2018-06-14T18:20:01.869Z,17.46
2018-06-14T18:22:30.733Z,17.35
2018-06-14T18:24:59.612Z,17.18
2018-06-14T18:27:28.511Z,17.00
2018-06-14T18:29:57.404Z,17.00
2018-06-14T18:32:26.262Z,17.44
2018-06-14T18:34:55.123Z,17.14
2018-06-14T18:37:24.042Z,17.54
2018-06-14T18:39:52.956Z,17.36
2018-06-14T18:42:21.850Z,17.24
2018-06-14T18:44:50.716Z,17.28
2018-06-14T18:47:19.609Z,17.62
2018-06-14T18:49:48.546Z,17.41
2018-06-14T18:52:17.320Z,17.30
2018-06-14T18:54:46.436Z,17.36
2018-06-14T18:57:15.315Z,17.24
2018-06-14T18:59:47.805Z,17.18
2018-06-14T19:02:16.655Z,17.22
2018-06-14T19:04:45.477Z,17.32
2018-06-14T19:07:14.354Z,17.41
2018-06-14T19:09:43.235Z,17.40
2018-06-14T19:12:12.122Z,17.39
2018-06-14T19:14:41.015Z,17.33
2018-06-14T19:17:09.951Z,17.22
2018-06-14T19:19:38.834Z,17.25
2018-06-14T19:22:07.723Z,17.23
2018-06-14T19:24:36.782Z,17.28
2018-06-14T19:27:05.658Z,17.29
2018-06-14T19:29:34.548Z,17.28
2018-06-14T19:32:03.451Z,17.31
2018-06-14T19:34:32.336Z,17.30
2018-06-14T19:37:01.217Z,17.26
2018-06-14T19:39:30.088Z,17.61
2018-06-14T19:41:58.980Z,17.40
2018-06-14T19:44:27.822Z,17.32
2018-06-14T19:46:56.700Z,17.31
2018-06-14T19:49:26.276Z,17.32
2018-06-14T19:51:56.507Z,17.38
2018-06-14T19:54:26.590Z,17.33
2018-06-14T19:56:55.453Z,17.64
2018-06-14T19:59:24.322Z,17.32
2018-06-14T20:01:53.241Z,17.34
2018-06-14T20:04:22.270Z,17.73
2018-06-14T20:06:51.183Z,17.43
2018-06-14T20:09:20.015Z,17.33
2018-06-14T20:11:48.896Z,17.24
2018-06-14T20:14:17.754Z,17.27
2018-06-14T20:16:46.602Z,17.26
2018-06-14T20:19:15.471Z,17.18
2018-06-14T20:21:44.343Z,17.25
2018-06-14T20:24:13.215Z,17.29
2018-06-14T20:26:42.058Z,17.61
2018-06-14T20:29:10.917Z,17.37
2018-06-14T20:31:39.770Z,17.26
2018-06-14T20:34:08.675Z,17.62
2018-06-14T20:36:37.571Z,17.38
2018-06-14T20:39:09.097Z,17.21
2018-06-14T20:41:38.190Z,17.19
2018-06-14T20:44:07.046Z,17.05
2018-06-14T20:46:35.931Z,17.00
2018-06-14T20:49:04.822Z,17.01
2018-06-14T20:51:33.695Z,16.97
2018-06-14T20:54:02.749Z,16.95
2018-06-14T20:56:31.652Z,16.89
2018-06-14T20:59:00.529Z,16.83
2018-06-14T21:01:29.609Z,16.87
2018-06-14T21:03:58.587Z,16.87
2018-06-14T21:06:28.109Z,16.82
2018-06-14T21:08:57.410Z,16.82
2018-06-14T21:11:26.299Z,16.84
2018-06-14T21:13:55.167Z,16.86
2018-06-14T21:16:24.029Z,16.80
2018-06-14T21:18:52.988Z,16.84
2018-06-14T21:21:21.877Z,16.88
2018-06-14T21:23:50.964Z,16.90
2018-06-14T21:26:19.815Z,16.91
2018-06-14T21:28:48.701Z,16.80
2018-06-14T21:31:17.542Z,16.89
2018-06-14T21:33:46.617Z,16.77
2018-06-14T21:36:15.487Z,16.84
2018-06-14T21:38:44.517Z,17.26
2018-06-14T21:41:13.505Z,17.02
2018-06-14T21:43:42.383Z,16.97
2018-06-14T21:46:11.260Z,17.03
2018-06-14T21:48:40.149Z,16.98
2018-06-14T21:51:09.071Z,17.05
2018-06-14T21:53:37.959Z,17.03
2018-06-14T21:56:06.930Z,17.11
2018-06-14T21:58:35.810Z,17.15
2018-06-14T22:01:04.761Z,17.11
2018-06-14T22:03:51.444Z,17.12
2018-06-14T22:06:20.327Z,17.07
2018-06-14T22:08:49.222Z,17.10
2018-06-14T22:11:18.094Z,17.13
2018-06-14T22:13:46.967Z,17.09
2018-06-14T22:16:15.874Z,17.13
2018-06-14T22:18:44.765Z,17.06
2018-06-14T22:21:13.671Z,17.10
2018-06-14T22:23:42.543Z,17.12
2018-06-14T22:26:11.358Z,17.11
2018-06-14T22:28:40.253Z,17.13
2018-06-14T22:31:09.120Z,17.09
2018-06-14T22:34:14.374Z,17.06
2018-06-14T22:36:43.265Z,17.06
2018-06-14T22:39:12.122Z,17.09
2018-06-14T22:41:41.003Z,17.09
2018-06-14T22:44:09.933Z,17.05
2018-06-14T22:46:38.724Z,17.02
2018-06-14T22:49:07.607Z,17.08
2018-06-14T22:52:08.978Z,17.07
2018-06-14T22:54:37.840Z,17.10
2018-06-14T22:57:06.745Z,17.09
2018-06-14T22:59:35.613Z,17.07
2018-06-14T23:02:04.484Z,17.08
2018-06-14T23:04:33.339Z,17.12
2018-06-14T23:07:02.202Z,17.48
2018-06-14T23:10:09.900Z,17.30
2018-06-14T23:12:38.932Z,17.20
2018-06-14T23:15:07.784Z,17.22
2018-06-14T23:17:36.688Z,17.23
2018-06-14T23:20:05.550Z,17.26
2018-06-14T23:22:34.417Z,17.30
2018-06-14T23:25:03.281Z,17.29
2018-06-14T23:27:32.192Z,17.67
2018-06-14T23:30:01.373Z,17.42
2018-06-14T23:32:30.671Z,17.35
2018-06-14T23:34:59.511Z,17.36
2018-06-14T23:37:28.393Z,17.40
2018-06-14T23:39:57.853Z,17.46
2018-06-14T23:42:26.691Z,17.50
2018-06-14T23:44:56.851Z,17.48
2018-06-14T23:47:26.297Z,17.47
2018-06-14T23:49:55.551Z,17.43
2018-06-14T23:52:24.446Z,17.42
2018-06-14T23:54:53.304Z,17.40
2018-06-14T23:57:22.397Z,17.76
2018-06-14T23:59:51.558Z,17.56
